createdAt,value
2023-03-18T00:01:18.260Z,97772.09
2023-03-18T00:03:23.129Z,97773.03
2023-03-18T00:05:28.171Z,97774.84
2023-03-18T00:07:32.944Z,97777.59
2023-03-18T00:09:37.761Z,97775.94
2023-03-18T00:11:42.937Z,97769.16
2023-03-18T00:13:48.107Z,97773.06
2023-03-18T00:15:53.524Z,97779.53
2023-03-18T00:18:01.804Z,97778.22
2023-03-18T00:20:07.604Z,97771.41
2023-03-18T00:22:13.476Z,97775.00
2023-03-18T00:24:18.336Z,97775.22
2023-03-18T00:26:23.226Z,97775.22
2023-03-18T00:28:28.473Z,97770.00
2023-03-18T00:30:33.681Z,97778.72
2023-03-18T00:32:38.921Z,97774.50
2023-03-18T00:34:46.615Z,97774.50
2023-03-18T00:36:57.037Z,97776.53
2023-03-18T00:39:03.724Z,97777.53
2023-03-18T00:41:16.168Z,97775.94
2023-03-18T00:43:22.726Z,97786.31
2023-03-18T00:45:27.556Z,97786.38
2023-03-18T00:47:33.753Z,97780.41
2023-03-18T00:49:38.616Z,97783.88
2023-03-18T00:51:46.498Z,97778.81
2023-03-18T00:53:53.151Z,97785.03
2023-03-18T00:55:57.959Z,97782.66
2023-03-18T00:58:03.177Z,97781.19
2023-03-18T01:00:09.858Z,97780.41
2023-03-18T01:02:14.814Z,97789.13
2023-03-18T01:04:21.653Z,97783.19
2023-03-18T01:06:28.479Z,97777.38
2023-03-18T01:08:36.006Z,97780.88
2023-03-18T01:10:40.989Z,97780.88
2023-03-18T01:12:49.249Z,97783.47
2023-03-18T01:14:54.625Z,97781.81
2023-03-18T01:16:59.469Z,97785.31
2023-03-18T01:19:04.525Z,97785.50
2023-03-18T01:21:12.127Z,97783.84
2023-03-18T01:23:24.522Z,97790.88
2023-03-18T01:25:32.160Z,97786.81
2023-03-18T01:27:37.691Z,97788.66
2023-03-18T01:29:42.713Z,97788.69
2023-03-18T01:31:55.046Z,97794.72
2023-03-18T01:34:01.175Z,97792.28
2023-03-18T01:36:15.372Z,97790.59
2023-03-18T01:38:20.618Z,97795.78
2023-03-18T01:40:26.144Z,97796.72
2023-03-18T01:42:36.117Z,97793.25
2023-03-18T01:44:41.080Z,97794.25
2023-03-18T01:46:47.879Z,97800.47
2023-03-18T01:48:54.882Z,97795.22
2023-03-18T01:51:04.562Z,97786.59
2023-03-18T01:53:13.273Z,97799.75
2023-03-18T01:55:22.711Z,97805.00
2023-03-18T01:57:27.792Z,97800.81
2023-03-18T01:59:39.061Z,97797.44
2023-03-18T02:01:48.159Z,97805.22
2023-03-18T02:03:55.430Z,97808.59
2023-03-18T02:06:00.503Z,97813.72
2023-03-18T02:08:05.723Z,97815.50
2023-03-18T02:10:14.349Z,97812.88
2023-03-18T02:12:24.840Z,97817.09
2023-03-18T02:14:36.062Z,97819.75
2023-03-18T02:16:47.505Z,97827.47
2023-03-18T02:18:56.972Z,97826.63
2023-03-18T02:21:16.925Z,97823.16
2023-03-18T02:23:31.412Z,97823.16
2023-03-18T02:25:45.749Z,97826.81
2023-03-18T02:27:59.553Z,97827.75
2023-03-18T02:30:13.302Z,97834.59
2023-03-18T02:32:20.385Z,97827.91
2023-03-18T02:34:27.540Z,97830.59
2023-03-18T02:36:35.312Z,97827.22
2023-03-18T02:38:48.627Z,97833.41
2023-03-18T02:41:00.187Z,97833.50
2023-03-18T02:43:26.485Z,97833.50
2023-03-18T02:45:43.793Z,97836.22
2023-03-18T02:47:51.454Z,97836.34
2023-03-18T02:49:56.763Z,97830.38
2023-03-18T02:52:02.129Z,97833.81
2023-03-18T02:54:11.158Z,97836.53
2023-03-18T02:56:16.964Z,97838.34
2023-03-18T02:58:25.415Z,97839.13
2023-03-18T03:00:33.514Z,97841.00
2023-03-18T03:02:38.602Z,97848.06
2023-03-18T03:04:44.171Z,97845.59
2023-03-18T03:06:49.721Z,97849.09
2023-03-18T03:08:58.889Z,97855.31
2023-03-18T03:11:03.770Z,97852.75
2023-03-18T03:13:11.720Z,97858.81
2023-03-18T03:15:20.651Z,97854.41
2023-03-18T03:17:31.896Z,97864.78
2023-03-18T03:19:36.913Z,97858.75
2023-03-18T03:21:42.482Z,97866.59
2023-03-18T03:23:48.312Z,97861.47
2023-03-18T03:25:53.141Z,97865.72
2023-03-18T03:27:58.473Z,97866.72
2023-03-18T03:30:03.289Z,97866.72
2023-03-18T03:32:12.046Z,97873.47
2023-03-18T03:34:16.884Z,97869.13
2023-03-18T03:36:21.991Z,97868.28
2023-03-18T03:38:26.824Z,97869.19
2023-03-18T03:40:34.084Z,97865.81
2023-03-18T03:42:39.046Z,97878.81
2023-03-18T03:44:43.951Z,97868.53
2023-03-18T03:46:49.057Z,97867.81
2023-03-18T03:48:56.491Z,97871.63
2023-03-18T03:51:01.409Z,97874.22
2023-03-18T03:53:07.590Z,97869.81
2023-03-18T03:55:15.223Z,97874.06
2023-03-18T03:57:20.914Z,97880.00
2023-03-18T03:59:26.119Z,97876.44
2023-03-18T04:01:52.090Z,97877.47
2023-03-18T04:04:00.808Z,97876.66
2023-03-18T04:06:06.718Z,97880.19
2023-03-18T04:08:13.367Z,97882.00
2023-03-18T04:10:20.778Z,97879.25
2023-03-18T04:12:25.762Z,97883.47
2023-03-18T04:14:36.113Z,97884.22
2023-03-18T04:16:40.937Z,97881.63
2023-03-18T04:18:47.345Z,97888.66
2023-03-18T04:20:55.195Z,97882.00
2023-03-18T04:23:29.538Z,97881.28
2023-03-18T04:25:35.414Z,97884.59
2023-03-18T04:27:40.408Z,97877.53
2023-03-18T04:29:48.095Z,97879.28
2023-03-18T04:31:53.262Z,97875.84
2023-03-18T04:34:00.512Z,97869.75
2023-03-18T04:36:09.328Z,97875.91
2023-03-18T04:38:15.412Z,97872.59
2023-03-18T04:40:21.151Z,97878.69
2023-03-18T04:42:25.807Z,97874.47
2023-03-18T04:44:30.800Z,97878.09
2023-03-18T04:46:38.912Z,97878.97
2023-03-18T04:48:44.785Z,97876.44
2023-03-18T04:50:50.756Z,97877.34
2023-03-18T04:53:04.404Z,97879.16
2023-03-18T04:55:11.187Z,97888.75
2023-03-18T04:57:18.422Z,97883.59
2023-03-18T04:59:29.029Z,97880.97
2023-03-18T05:01:35.349Z,97878.28
2023-03-18T05:03:40.435Z,97885.13
2023-03-18T05:05:46.299Z,97879.88
2023-03-18T05:07:54.522Z,97889.53
2023-03-18T05:10:03.041Z,97890.41
2023-03-18T05:12:08.399Z,97893.84
2023-03-18T05:14:15.727Z,97896.56
2023-03-18T05:16:24.894Z,97900.13
2023-03-18T05:18:30.142Z,97904.53
2023-03-18T05:20:39.775Z,97895.03
2023-03-18T05:22:44.789Z,97890.84
2023-03-18T05:25:03.517Z,97894.44
2023-03-18T05:27:09.397Z,97890.09
2023-03-18T05:29:18.205Z,97886.53
2023-03-18T05:31:35.213Z,97897.09
2023-03-18T05:33:42.394Z,97900.66
2023-03-18T05:35:48.491Z,97899.00
2023-03-18T05:37:56.035Z,97907.69
2023-03-18T05:40:04.320Z,97912.00
2023-03-18T05:42:11.248Z,97900.81
2023-03-18T05:44:17.047Z,97896.56
2023-03-18T05:46:22.941Z,97904.34
2023-03-18T05:48:54.492Z,97906.94
2023-03-18T05:51:01.698Z,97908.66
2023-03-18T05:53:09.681Z,97900.88
2023-03-18T05:55:20.106Z,97911.06
2023-03-18T05:57:25.031Z,97905.03
2023-03-18T05:59:45.465Z,97905.94
2023-03-18T06:01:50.475Z,97906.06
2023-03-18T06:03:56.264Z,97905.09
2023-03-18T06:06:01.774Z,97905.09
2023-03-18T06:08:07.288Z,97905.16
2023-03-18T06:10:15.153Z,97908.53
2023-03-18T06:12:27.463Z,97911.84
2023-03-18T06:14:32.796Z,97904.88
2023-03-18T06:16:42.812Z,97904.81
2023-03-18T06:18:57.718Z,97913.38
2023-03-18T06:21:05.001Z,97913.25
2023-03-18T06:23:14.454Z,97907.97
2023-03-18T06:25:56.811Z,97908.69
2023-03-18T06:28:26.092Z,97915.50
2023-03-18T06:30:37.313Z,97917.97
2023-03-18T06:32:54.431Z,97910.16
2023-03-18T06:37:42.299Z,97920.41
2023-03-18T06:39:55.266Z,97921.28
2023-03-18T06:42:11.104Z,97923.84
2023-03-18T06:44:43.292Z,97919.38
2023-03-18T06:47:54.504Z,97918.31
2023-03-18T06:50:32.720Z,97925.00
2023-03-18T06:52:43.847Z,97927.44
2023-03-18T06:54:52.205Z,97921.25
2023-03-18T06:57:03.426Z,97927.16
2023-03-18T06:59:13.019Z,97923.78
2023-03-18T07:01:23.204Z,97929.81
2023-03-18T07:03:29.371Z,97929.81
2023-03-18T07:05:47.307Z,97928.97
2023-03-18T07:07:57.294Z,97930.91
2023-03-18T07:10:22.747Z,97936.84
2023-03-18T07:12:36.261Z,97936.84
2023-03-18T07:14:49.652Z,97940.19
2023-03-18T07:17:10.600Z,97941.72
2023-03-18T07:19:20.774Z,97939.88
2023-03-18T07:21:33.693Z,97943.94
2023-03-18T07:23:41.344Z,97946.28
2023-03-18T07:25:55.128Z,97947.00
2023-03-18T07:28:00.319Z,97954.63
2023-03-18T07:30:09.621Z,97952.06
2023-03-18T07:32:19.941Z,97953.72
2023-03-18T07:34:30.957Z,97964.09
2023-03-18T07:36:43.105Z,97961.50
2023-03-18T07:38:52.079Z,97967.47
2023-03-18T07:41:00.352Z,97960.28
2023-03-18T07:43:05.525Z,97967.91
2023-03-18T07:45:12.396Z,97961.63
2023-03-18T07:47:30.229Z,97969.91
2023-03-18T07:49:38.528Z,97964.69
2023-03-18T07:51:43.298Z,97966.22
2023-03-18T07:53:48.116Z,97975.53
2023-03-18T07:55:53.025Z,97972.88
2023-03-18T07:57:57.838Z,97968.34
2023-03-18T08:00:02.751Z,97969.91
2023-03-18T08:02:20.519Z,97971.28
2023-03-18T08:04:25.488Z,97973.56
2023-03-18T08:06:30.464Z,97975.13
2023-03-18T08:08:38.165Z,97975.78
2023-03-18T08:10:43.044Z,97975.50
2023-03-18T08:12:53.179Z,97976.94
2023-03-18T08:14:59.966Z,97976.41
2023-03-18T08:17:05.085Z,97979.50
2023-03-18T08:19:12.735Z,97981.78
2023-03-18T08:21:17.699Z,97988.47
2023-03-18T08:23:22.476Z,97982.03
2023-03-18T08:25:27.393Z,97989.91
2023-03-18T08:27:32.306Z,97981.25
2023-03-18T08:29:37.091Z,97976.84
2023-03-18T08:31:42.020Z,97977.19
2023-03-18T08:33:47.731Z,97967.75
2023-03-18T08:35:56.060Z,97975.75
2023-03-18T08:38:00.879Z,97970.09
2023-03-18T08:40:08.002Z,97978.28
2023-03-18T08:42:13.455Z,97982.97
2023-03-18T08:44:18.305Z,97987.81
2023-03-18T08:46:23.169Z,97984.59
2023-03-18T08:48:28.491Z,97986.09
2023-03-18T08:50:33.314Z,97980.81
2023-03-18T08:52:41.324Z,97982.34
2023-03-18T08:54:46.108Z,97983.44
2023-03-18T08:56:52.755Z,97987.09
2023-03-18T08:58:57.569Z,97982.97
2023-03-18T09:01:03.628Z,97989.97
2023-03-18T09:03:08.909Z,97981.03
2023-03-18T09:05:13.919Z,97980.16
2023-03-18T09:07:19.271Z,97971.16
2023-03-18T09:09:40.841Z,97976.00
2023-03-18T09:11:48.639Z,97972.31
2023-03-18T09:13:53.735Z,97972.31
2023-03-18T09:15:58.511Z,97971.13
2023-03-18T09:18:12.206Z,97957.88
2023-03-18T09:20:19.806Z,97968.75
2023-03-18T09:22:24.689Z,97965.75
2023-03-18T09:24:32.175Z,97963.88
2023-03-18T09:26:37.083Z,97960.75
2023-03-18T09:28:42.248Z,97960.97
2023-03-18T09:30:47.292Z,97958.25
2023-03-18T09:32:52.217Z,97963.66
2023-03-18T09:34:57.198Z,97956.09
2023-03-18T09:37:02.071Z,97965.09
2023-03-18T09:39:07.162Z,97961.38
2023-03-18T09:41:28.017Z,97962.63
2023-03-18T09:43:55.851Z,97958.56
2023-03-18T09:46:09.707Z,97954.66
2023-03-18T09:48:44.313Z,97955.66
2023-03-18T09:51:04.240Z,97955.16
2023-03-18T09:53:19.385Z,97960.78
2023-03-18T09:55:30.555Z,97959.34
2023-03-18T09:57:42.748Z,97957.84
2023-03-18T09:59:50.566Z,97964.31
2023-03-18T10:01:58.444Z,97966.56
2023-03-18T10:04:07.659Z,97963.69
2023-03-18T10:06:19.807Z,97961.34
2023-03-18T10:08:38.712Z,97962.31
2023-03-18T10:10:48.249Z,97968.38
2023-03-18T10:13:05.501Z,97964.06
2023-03-18T10:15:19.479Z,97968.84
2023-03-18T10:17:30.316Z,97958.72
2023-03-18T10:19:39.938Z,97965.56
2023-03-18T10:21:51.080Z,97959.84
2023-03-18T10:24:06.147Z,97961.16
2023-03-18T10:26:19.795Z,97956.13
2023-03-18T10:28:43.615Z,97954.69
2023-03-18T10:31:00.861Z,97948.66
2023-03-18T10:33:14.546Z,97947.03
2023-03-18T10:35:35.373Z,97945.09
2023-03-18T10:37:52.028Z,97940.09
2023-03-18T10:39:57.509Z,97936.31
2023-03-18T10:42:13.603Z,97935.50
2023-03-18T10:44:25.600Z,97936.97
2023-03-18T10:46:30.685Z,97927.88
2023-03-18T10:48:38.942Z,97933.63
2023-03-18T10:50:49.229Z,97929.88
2023-03-18T10:52:59.759Z,97927.25
2023-03-18T10:55:04.985Z,97926.09
2023-03-18T10:57:13.130Z,97928.28
2023-03-18T10:59:24.641Z,97927.38
2023-03-18T11:01:31.805Z,97921.44
2023-03-18T11:03:39.936Z,97916.47
2023-03-18T11:05:45.660Z,97917.75
2023-03-18T11:08:01.690Z,97913.09
2023-03-18T11:10:21.663Z,97914.25
2023-03-18T11:12:29.232Z,97913.81
2023-03-18T11:14:39.254Z,97911.59
2023-03-18T11:16:50.200Z,97909.72
2023-03-18T11:18:55.617Z,97907.59
2023-03-18T11:21:03.118Z,97907.69
2023-03-18T11:23:13.751Z,97913.91
2023-03-18T11:25:21.000Z,97914.13
2023-03-18T11:27:29.954Z,97910.97
2023-03-18T11:29:38.368Z,97905.50
2023-03-18T11:31:53.284Z,97908.63
2023-03-18T11:34:00.874Z,97904.72
2023-03-18T11:36:13.328Z,97901.66
2023-03-18T11:38:20.697Z,97899.44
2023-03-18T11:40:32.375Z,97897.53
2023-03-18T11:42:38.088Z,97903.19
2023-03-18T11:44:46.661Z,97898.44
2023-03-18T11:46:58.752Z,97890.53
2023-03-18T11:49:04.214Z,97892.63
2023-03-18T11:51:29.983Z,97894.97
2023-03-18T11:53:51.285Z,97884.72
2023-03-18T11:56:02.492Z,97883.53
2023-03-18T11:58:36.909Z,97870.03
2023-03-18T12:00:52.697Z,97867.50
2023-03-18T12:03:22.735Z,97868.72
2023-03-18T12:05:43.687Z,97871.72
2023-03-18T12:07:58.496Z,97862.31
2023-03-18T12:10:13.080Z,97863.28
2023-03-18T12:12:34.399Z,97865.25
2023-03-18T12:14:46.669Z,97863.22
2023-03-18T12:17:05.498Z,97857.13
2023-03-18T12:19:27.121Z,97852.31
2023-03-18T12:22:00.916Z,97847.28
2023-03-18T12:24:29.674Z,97846.94
2023-03-18T12:26:44.029Z,97847.91
2023-03-18T12:29:15.015Z,97843.47
2023-03-18T12:31:42.018Z,97848.50
2023-03-18T12:33:57.920Z,97848.28
2023-03-18T12:36:13.094Z,97839.19
2023-03-18T12:38:45.165Z,97837.66
2023-03-18T12:41:02.134Z,97839.81
2023-03-18T12:43:33.599Z,97832.78
2023-03-18T12:45:43.337Z,97833.47
2023-03-18T12:47:52.712Z,97832.78
2023-03-18T12:50:02.755Z,97827.50
2023-03-18T12:52:11.519Z,97831.53
2023-03-18T12:54:23.753Z,97839.31
2023-03-18T12:56:32.789Z,97837.88
2023-03-18T12:58:43.006Z,97831.69
2023-03-18T13:00:53.841Z,97836.72
2023-03-18T13:03:07.280Z,97835.63
2023-03-18T13:05:27.615Z,97837.31
2023-03-18T13:07:40.761Z,97836.56
2023-03-18T13:09:51.115Z,97839.94
2023-03-18T13:12:07.752Z,97835.75
2023-03-18T13:14:21.862Z,97834.78
2023-03-18T13:16:26.807Z,97837.78
2023-03-18T13:18:38.690Z,97828.31
2023-03-18T13:20:46.931Z,97832.50
2023-03-18T13:23:18.062Z,97828.91
2023-03-18T13:25:34.735Z,97824.25
2023-03-18T13:27:51.675Z,97819.13
2023-03-18T13:30:06.254Z,97822.56
2023-03-18T13:32:27.799Z,97817.78
2023-03-18T13:34:58.904Z,97819.56
2023-03-18T13:37:43.187Z,97824.34
2023-03-18T13:40:04.640Z,97821.44
2023-03-18T13:42:26.038Z,97816.66
2023-03-18T13:44:45.274Z,97819.41
2023-03-18T13:47:00.180Z,97816.78
2023-03-18T13:49:06.630Z,97816.66
2023-03-18T13:51:23.638Z,97816.19
2023-03-18T13:53:30.950Z,97809.75
2023-03-18T13:55:47.449Z,97806.19
2023-03-18T13:57:59.953Z,97804.06
2023-03-18T14:00:25.473Z,97796.72
2023-03-18T14:02:47.582Z,97800.44
2023-03-18T14:04:54.280Z,97798.66
2023-03-18T14:07:14.688Z,97801.78
2023-03-18T14:09:37.076Z,97794.59
2023-03-18T14:11:51.918Z,97791.84
2023-03-18T14:14:00.684Z,97794.81
2023-03-18T14:16:11.361Z,97789.72
2023-03-18T14:18:28.333Z,97787.06
2023-03-18T14:20:42.282Z,97781.34
2023-03-18T14:22:48.716Z,97787.28
2023-03-18T14:25:29.395Z,97782.34
2023-03-18T14:27:47.758Z,97783.88
2023-03-18T14:29:52.547Z,97783.25
2023-03-18T14:32:07.865Z,97778.88
2023-03-18T14:34:35.972Z,97785.91
2023-03-18T14:37:22.406Z,97782.41
2023-03-18T14:39:35.681Z,97776.50
2023-03-18T14:41:47.081Z,97776.00
2023-03-18T14:44:06.598Z,97772.72
2023-03-18T14:46:19.325Z,97775.00
2023-03-18T14:48:29.371Z,97771.38
2023-03-18T14:50:43.142Z,97772.22
2023-03-18T14:52:55.856Z,97778.00
2023-03-18T14:55:05.416Z,97777.13
2023-03-18T14:57:10.457Z,97779.56
2023-03-18T14:59:19.106Z,97776.09
2023-03-18T15:01:27.760Z,97770.56
2023-03-18T15:03:34.213Z,97771.88
2023-03-18T15:05:43.075Z,97760.84
2023-03-18T15:07:54.173Z,97769.88
2023-03-18T15:09:59.121Z,97767.81
2023-03-18T15:12:19.388Z,97767.34
2023-03-18T15:14:30.192Z,97759.44
2023-03-18T15:16:36.762Z,97758.97
2023-03-18T15:18:41.981Z,97761.47
2023-03-18T15:20:47.908Z,97765.66
2023-03-18T15:22:53.275Z,97764.28
2023-03-18T15:25:02.401Z,97760.56
2023-03-18T15:27:12.237Z,97760.31
2023-03-18T15:29:35.143Z,97761.59
2023-03-18T15:31:45.934Z,97760.34
2023-03-18T15:33:50.751Z,97761.41
2023-03-18T15:36:00.430Z,97754.47
2023-03-18T15:38:16.186Z,97762.06
2023-03-18T15:40:36.414Z,97755.03
2023-03-18T15:42:41.503Z,97758.06
2023-03-18T15:44:49.016Z,97763.97
2023-03-18T15:46:54.727Z,97760.84
2023-03-18T15:49:01.005Z,97766.50
2023-03-18T15:51:10.993Z,97763.53
2023-03-18T15:53:23.622Z,97764.50
2023-03-18T15:55:30.772Z,97763.69
2023-03-18T15:57:38.253Z,97757.81
2023-03-18T15:59:43.152Z,97752.09
2023-03-18T16:01:50.542Z,97750.06
2023-03-18T16:03:55.512Z,97749.28
2023-03-18T16:06:01.069Z,97751.78
2023-03-18T16:08:05.903Z,97745.94
2023-03-18T16:10:12.463Z,97746.19
2023-03-18T16:12:22.299Z,97742.97
2023-03-18T16:14:31.703Z,97744.28
2023-03-18T16:16:36.908Z,97744.66
2023-03-18T16:18:46.748Z,97745.63
2023-03-18T16:20:52.975Z,97750.41
2023-03-18T16:22:59.833Z,97757.75
2023-03-18T16:25:04.634Z,97759.78
2023-03-18T16:27:10.279Z,97759.31
2023-03-18T16:29:18.820Z,97755.38
2023-03-18T16:31:23.772Z,97764.69
2023-03-18T16:33:28.667Z,97770.44
2023-03-18T16:35:38.472Z,97771.63
2023-03-18T16:37:43.667Z,97772.22
2023-03-18T16:39:48.636Z,97773.91
2023-03-18T16:41:56.557Z,97777.75
2023-03-18T16:44:01.364Z,97776.19
2023-03-18T16:46:06.615Z,97777.25
2023-03-18T16:48:17.406Z,97773.91
2023-03-18T16:50:24.605Z,97780.13
2023-03-18T16:52:35.390Z,97782.75
2023-03-18T16:54:40.172Z,97783.59
2023-03-18T16:56:45.444Z,97787.06
2023-03-18T16:58:50.690Z,97788.84
2023-03-18T17:00:55.860Z,97785.50
2023-03-18T17:03:01.208Z,97783.25
2023-03-18T17:05:06.658Z,97786.22
2023-03-18T17:07:11.461Z,97786.53
2023-03-18T17:09:19.385Z,97788.72
2023-03-18T17:11:24.509Z,97789.19
2023-03-18T17:13:32.076Z,97783.44
2023-03-18T17:15:41.565Z,97790.09
2023-03-18T17:17:47.465Z,97793.91
2023-03-18T17:19:52.232Z,97799.50
2023-03-18T17:21:57.195Z,97796.19
2023-03-18T17:24:03.162Z,97791.03
2023-03-18T17:26:16.390Z,97793.06
2023-03-18T17:28:32.648Z,97799.47
2023-03-18T17:30:39.792Z,97803.16
2023-03-18T17:32:46.232Z,97799.66
2023-03-18T17:34:53.529Z,97792.00
2023-03-18T17:36:58.744Z,97801.09
2023-03-18T17:39:04.362Z,97797.25
2023-03-18T17:41:17.559Z,97794.00
2023-03-18T17:43:29.235Z,97803.06
2023-03-18T17:45:37.057Z,97797.06
2023-03-18T17:47:41.922Z,97798.13
2023-03-18T17:49:46.707Z,97791.31
2023-03-18T17:51:52.210Z,97802.56
2023-03-18T17:53:59.394Z,97806.97
2023-03-18T17:56:04.814Z,97799.09
2023-03-18T17:58:18.608Z,97803.28
2023-03-18T18:00:26.390Z,97804.13
2023-03-18T18:02:33.888Z,97803.16
2023-03-18T18:04:40.004Z,97798.63
2023-03-18T18:06:47.860Z,97797.81
2023-03-18T18:08:56.155Z,97800.53
2023-03-18T18:11:07.246Z,97798.03
2023-03-18T18:13:19.587Z,97799.94
2023-03-18T18:15:27.751Z,97811.63
2023-03-18T18:17:35.056Z,97800.50
2023-03-18T18:19:39.887Z,97803.97
2023-03-18T18:21:46.221Z,97797.97
2023-03-18T18:23:51.424Z,97802.50
2023-03-18T18:25:56.252Z,97794.13
2023-03-18T18:28:01.178Z,97798.03
2023-03-18T18:30:09.833Z,97801.09
2023-03-18T18:32:15.688Z,97798.81
2023-03-18T18:34:21.365Z,97805.66
2023-03-18T18:36:28.257Z,97805.03
2023-03-18T18:38:33.160Z,97808.72
2023-03-18T18:40:38.638Z,97814.31
2023-03-18T18:42:44.393Z,97806.75
2023-03-18T18:44:49.568Z,97809.59
2023-03-18T18:46:57.361Z,97809.91
2023-03-18T18:49:02.558Z,97805.00
2023-03-18T18:51:07.264Z,97808.34
2023-03-18T18:53:24.148Z,97803.22
2023-03-18T18:55:29.230Z,97805.00
2023-03-18T18:57:40.270Z,97810.97
2023-03-18T18:59:45.760Z,97797.84
2023-03-18T19:01:50.646Z,97799.63
2023-03-18T19:03:58.261Z,97802.47
2023-03-18T19:06:04.955Z,97801.72
2023-03-18T19:08:23.212Z,97798.69
2023-03-18T19:10:28.067Z,97801.41
2023-03-18T19:12:33.027Z,97803.41
2023-03-18T19:14:38.183Z,97805.22
2023-03-18T19:16:43.517Z,97806.03
2023-03-18T19:18:48.602Z,97806.88
2023-03-18T19:20:56.250Z,97804.34
2023-03-18T19:23:01.032Z,97805.09
2023-03-18T19:25:06.180Z,97807.63
2023-03-18T19:27:16.957Z,97809.72
2023-03-18T19:29:21.888Z,97813.94
2023-03-18T19:31:30.819Z,97807.63
2023-03-18T19:33:36.429Z,97805.94
2023-03-18T19:35:41.559Z,97811.50
2023-03-18T19:37:50.305Z,97809.81
2023-03-18T19:39:55.120Z,97811.59
2023-03-18T19:41:59.993Z,97816.84
2023-03-18T19:44:09.746Z,97810.03
2023-03-18T19:46:18.974Z,97818.09
2023-03-18T19:48:29.002Z,97813.91
2023-03-18T19:50:33.788Z,97817.59
2023-03-18T19:52:38.731Z,97817.69
2023-03-18T19:54:46.300Z,97824.59
2023-03-18T19:56:52.543Z,97823.22
2023-03-18T19:59:00.749Z,97826.06
2023-03-18T20:01:05.617Z,97828.06
2023-03-18T20:03:15.845Z,97831.00
2023-03-18T20:05:22.933Z,97834.00
2023-03-18T20:07:29.889Z,97832.84
2023-03-18T20:09:34.681Z,97835.56
2023-03-18T20:11:42.296Z,97841.97
2023-03-18T20:13:47.802Z,97841.44
2023-03-18T20:15:52.567Z,97835.34
2023-03-18T20:17:58.257Z,97847.78
2023-03-18T20:20:03.778Z,97839.31
2023-03-18T20:22:08.568Z,97848.31
2023-03-18T20:24:17.303Z,97851.13
2023-03-18T20:26:26.753Z,97854.78
2023-03-18T20:28:34.305Z,97847.13
2023-03-18T20:30:41.480Z,97855.19
2023-03-18T20:32:46.442Z,97851.03
2023-03-18T20:34:51.345Z,97852.19
2023-03-18T20:36:56.204Z,97854.38
2023-03-18T20:39:01.362Z,97855.47
2023-03-18T20:41:06.799Z,97852.22
2023-03-18T20:43:17.045Z,97858.41
2023-03-18T20:45:26.979Z,97867.38
2023-03-18T20:47:31.831Z,97854.47
2023-03-18T20:49:38.125Z,97864.31
2023-03-18T20:51:43.845Z,97860.31
2023-03-18T20:53:48.691Z,97860.38
2023-03-18T20:55:54.072Z,97869.19
2023-03-18T20:57:59.695Z,97866.69
2023-03-18T21:00:07.042Z,97872.94
2023-03-18T21:02:31.837Z,97865.28
2023-03-18T21:04:37.296Z,97870.91
2023-03-18T21:06:42.175Z,97863.06
2023-03-18T21:08:47.028Z,97872.84
2023-03-18T21:10:52.295Z,97873.03
2023-03-18T21:12:56.887Z,97871.56
2023-03-18T21:15:01.981Z,97863.97
2023-03-18T21:17:07.073Z,97862.94
2023-03-18T21:19:14.551Z,97866.41
2023-03-18T21:21:24.787Z,97863.78
2023-03-18T21:23:34.584Z,97867.53
2023-03-18T21:25:39.382Z,97861.66
2023-03-18T21:27:44.372Z,97866.06
2023-03-18T21:29:50.064Z,97857.44
2023-03-18T21:31:54.922Z,97869.78
2023-03-18T21:34:00.155Z,97863.72
2023-03-18T21:36:07.973Z,97870.16
2023-03-18T21:38:12.765Z,97871.09
2023-03-18T21:40:19.739Z,97866.69
2023-03-18T21:42:27.640Z,97868.56
2023-03-18T21:44:34.349Z,97871.38
2023-03-18T21:46:39.267Z,97873.41
2023-03-18T21:48:44.570Z,97872.00
2023-03-18T21:50:49.184Z,97875.16
2023-03-18T21:52:59.184Z,97871.16
2023-03-18T21:55:05.473Z,97872.44
2023-03-18T21:57:14.684Z,97865.69
2023-03-18T21:59:19.572Z,97863.25
2023-03-18T22:01:29.674Z,97870.34
2023-03-18T22:03:37.831Z,97874.00
2023-03-18T22:05:42.988Z,97877.63
2023-03-18T22:07:48.278Z,97867.34
2023-03-18T22:09:55.807Z,97864.72
2023-03-18T22:12:00.605Z,97872.75
2023-03-18T22:14:05.378Z,97868.28
2023-03-18T22:16:15.096Z,97869.13
2023-03-18T22:18:20.193Z,97870.13
2023-03-18T22:20:23.367Z,97873.66
2023-03-18T22:22:32.153Z,97870.31
2023-03-18T22:24:37.075Z,97872.16
2023-03-18T22:26:44.440Z,97873.28
2023-03-18T22:28:50.672Z,97868.25
2023-03-18T22:30:57.178Z,97870.94
2023-03-18T22:33:04.242Z,97879.88
2023-03-18T22:35:16.706Z,97878.38
2023-03-18T22:37:23.931Z,97871.66
2023-03-18T22:39:28.732Z,97878.66
2023-03-18T22:41:33.522Z,97876.22
2023-03-18T22:43:41.015Z,97875.53
2023-03-18T22:45:45.861Z,97874.03
2023-03-18T22:47:51.585Z,97876.88
2023-03-18T22:49:56.620Z,97877.94
2023-03-18T22:52:01.503Z,97878.84
2023-03-18T22:54:07.715Z,97881.53
2023-03-18T22:56:14.547Z,97893.00
2023-03-18T22:58:23.098Z,97890.75
2023-03-18T23:00:38.290Z,97897.13
2023-03-18T23:02:43.164Z,97892.25
2023-03-18T23:04:50.865Z,97898.50
2023-03-18T23:06:56.230Z,97896.78
2023-03-18T23:09:01.068Z,97891.72
2023-03-18T23:11:05.877Z,97895.34
2023-03-18T23:13:16.874Z,97898.91
2023-03-18T23:15:23.998Z,97897.41
2023-03-18T23:17:31.484Z,97896.47
2023-03-18T23:19:36.425Z,97891.25
2023-03-18T23:21:41.445Z,97892.16
2023-03-18T23:23:46.566Z,97886.19
2023-03-18T23:25:52.472Z,97894.34
2023-03-18T23:27:57.260Z,97885.94
2023-03-18T23:30:02.043Z,97897.19
2023-03-18T23:32:07.223Z,97894.69
2023-03-18T23:34:14.624Z,97905.34
2023-03-18T23:36:19.475Z,97897.97
2023-03-18T23:38:24.300Z,97909.47
2023-03-18T23:40:30.483Z,97900.13
2023-03-18T23:42:35.839Z,97902.97
2023-03-18T23:44:40.898Z,97903.03
2023-03-18T23:46:45.842Z,97894.44
2023-03-18T23:48:50.643Z,97904.94
2023-03-18T23:50:58.146Z,97903.28
2023-03-18T23:53:02.937Z,97905.09
2023-03-18T23:55:25.966Z,97906.88
2023-03-18T23:57:33.771Z,97902.75
2023-03-18T23:59:39.563Z,97902.75
